Time;durP1;ratioP1;P1;durP2;ratioP2;P2;SDS_P1;SDS_P2;PMS_P1;PMS_P2;Temp;Humidity;BMP_temperature;BMP_pressure;BME280_temperature;BME280_humidity;BME280_pressure;Samples;Min_cycle;Max_cycle;Signal;HPM_P1;HPM_P2
2021/03/16 05:55:49;;;;;;;17.70;4.90;;;3.70;99.90;;;;;;6181623;23;20228;-81
2021/03/16 05:58:15;;;;;;;13.70;3.40;;;3.70;99.90;;;;;;6180053;23;20152;-83
2021/03/16 06:01:13;;;;;;;20.33;4.37;;;3.80;99.90;;;;;;6181797;23;20216;-83
2021/03/16 06:26:58;;;;;;;17.77;3.23;;;3.80;99.90;;;;;;6176676;23;20211;-82
2021/03/16 06:29:24;;;;;;;14.93;3.70;;;3.80;99.90;;;;;;6179893;23;20161;-82
2021/03/16 06:31:51;;;;;;;16.37;3.17;;;3.90;99.90;;;;;;6179592;23;20172;-81
2021/03/16 06:38:14;;;;;;;18.47;3.13;;;3.80;99.90;;;;;;6183907;23;20188;-81
2021/03/16 06:40:40;;;;;;;16.27;3.40;;;3.80;99.90;;;;;;6182939;23;20153;-81
2021/03/16 06:43:09;;;;;;;17.93;3.80;;;3.80;99.90;;;;;;6205109;23;20165;-81
2021/03/16 06:45:36;;;;;;;12.07;3.47;;;3.80;99.90;;;;;;6170372;23;20185;-83
2021/03/16 06:56:35;;;;;;;10.03;2.80;;;4.00;99.90;;;;;;6177979;23;20204;-83
2021/03/16 06:59:01;;;;;;;14.20;3.57;;;4.00;99.90;;;;;;6166896;23;20153;-83
2021/03/16 07:01:34;;;;;;;12.27;2.70;;;4.20;99.90;;;;;;6167750;23;20164;-84
2021/03/16 07:04:12;;;;;;;16.07;2.87;;;4.20;99.90;;;;;;6167840;23;20153;-85
2021/03/16 07:06:39;;;;;;;14.83;3.20;;;4.20;99.90;;;;;;6163514;23;20185;-83
2021/03/16 07:09:05;;;;;;;13.30;3.00;;;4.20;99.90;;;;;;6159091;23;20188;-84
2021/03/16 07:11:34;;;;;;;16.37;3.50;;;4.30;99.90;;;;;;6157663;23;20154;-84
2021/03/16 07:14:02;;;;;;;14.63;3.67;;;4.10;99.90;;;;;;6158753;23;20158;-84
2021/03/16 07:16:27;;;;;;;12.73;3.37;;;4.00;99.90;;;;;;6158225;23;20181;-84
2021/03/16 07:18:53;;;;;;;17.47;3.80;;;4.10;99.90;;;;;;6157960;23;20162;-84
2021/03/16 07:21:25;;;;;;;10.60;2.53;;;4.10;99.90;;;;;;6156960;23;20192;-82
2021/03/16 07:27:13;;;;;;;13.33;2.70;;;4.10;99.90;;;;;;6173068;23;20204;-83
2021/03/16 07:29:40;;;;;;;15.97;3.43;;;4.30;99.90;;;;;;6159457;23;20167;-84
2021/03/16 07:32:07;;;;;;;12.83;3.87;;;4.30;99.90;;;;;;6161201;23;20172;-84
2021/03/16 07:34:34;;;;;;;13.20;3.47;;;4.30;99.90;;;;;;6158977;23;20160;-83
2021/03/16 07:37:02;;;;;;;17.50;3.67;;;4.40;99.90;;;;;;6156468;23;20168;-85
2021/03/16 07:39:29;;;;;;;18.63;3.10;;;4.70;99.90;;;;;;6156940;23;20694;-84
2021/03/16 07:41:55;;;;;;;19.00;3.80;;;4.50;99.90;;;;;;6183005;23;20152;-85
2021/03/16 07:44:20;;;;;;;17.47;5.00;;;4.50;99.90;;;;;;6158660;23;20157;-84
2021/03/16 07:46:56;;;;;;;14.07;3.80;;;4.60;99.90;;;;;;6157531;23;20633;-84
2021/03/16 07:49:36;;;;;;;14.57;2.90;;;4.70;99.90;;;;;;6175303;23;20173;-84
2021/03/16 07:52:14;;;;;;;13.93;3.93;;;4.80;99.90;;;;;;6128419;23;20563;-84
2021/03/16 07:54:41;;;;;;;12.20;3.10;;;4.60;99.90;;;;;;6130016;23;20145;-82
2021/03/16 07:57:07;;;;;;;15.03;3.57;;;4.80;99.90;;;;;;6129129;23;20185;-83
2021/03/16 07:59:35;;;;;;;11.37;2.80;;;4.60;99.90;;;;;;6129784;23;20208;-84
2021/03/16 08:02:02;;;;;;;16.97;3.47;;;4.60;99.90;;;;;;6155707;23;20150;-83
2021/03/16 08:04:39;;;;;;;14.43;3.30;;;4.60;99.90;;;;;;6129783;23;20142;-83
2021/03/16 08:07:07;;;;;;;12.70;3.57;;;4.60;99.90;;;;;;6156090;23;20176;-83
2021/03/16 08:09:47;;;;;;;10.60;3.20;;;4.80;99.90;;;;;;6126895;23;20177;-83
2021/03/16 08:12:20;;;;;;;17.67;4.10;;;4.70;99.90;;;;;;6155791;23;20129;-84
2021/03/16 08:14:46;;;;;;;13.83;3.20;;;4.60;99.90;;;;;;6129805;23;20277;-84
2021/03/16 08:17:12;;;;;;;15.87;3.67;;;4.70;99.90;;;;;;6128902;23;20605;-84
2021/03/16 08:19:39;;;;;;;15.63;3.03;;;4.80;99.90;;;;;;6128773;23;20271;-82
2021/03/16 08:22:05;;;;;;;10.50;3.27;;;4.90;99.90;;;;;;6125681;23;20162;-83
2021/03/16 08:24:39;;;;;;;13.73;3.17;;;4.80;99.90;;;;;;6126624;23;20252;-83
2021/03/16 08:27:12;;;;;;;13.57;3.60;;;4.80;99.90;;;;;;6129558;23;20198;-84
2021/03/16 08:29:45;;;;;;;9.93;2.60;;;4.80;99.90;;;;;;6127071;23;20177;-83
2021/03/16 08:32:19;;;;;;;14.00;3.20;;;4.70;99.90;;;;;;6128846;23;20142;-83
2021/03/16 08:34:46;;;;;;;15.07;3.40;;;4.80;99.90;;;;;;6127237;23;20153;-83
2021/03/16 08:37:28;;;;;;;14.93;3.60;;;4.90;99.90;;;;;;6126807;23;20171;-84
2021/03/16 08:39:55;;;;;;;10.17;3.50;;;5.00;99.90;;;;;;6126596;23;20212;-83
2021/03/16 08:42:23;;;;;;;10.03;3.43;;;5.10;99.90;;;;;;6126428;23;20215;-82
2021/03/16 08:44:50;;;;;;;11.33;3.03;;;5.20;99.90;;;;;;6153047;23;20228;-83
2021/03/16 08:47:21;;;;;;;12.17;4.00;;;5.30;99.90;;;;;;6129197;23;20645;-83
2021/03/16 08:49:48;;;;;;;13.50;3.77;;;5.40;99.90;;;;;;6128378;23;20921;-83
2021/03/16 08:52:25;;;;;;;10.23;2.93;;;5.30;99.90;;;;;;6129082;23;20158;-84
2021/03/16 08:54:53;;;;;;;8.50;2.83;;;5.50;99.90;;;;;;6128874;23;20152;-85
2021/03/16 08:57:24;;;;;;;11.33;3.43;;;5.50;99.90;;;;;;6128468;23;20159;-84
2021/03/16 09:00:05;;;;;;;11.70;3.50;;;5.50;99.90;;;;;;6127795;23;20204;-83
2021/03/16 09:02:34;;;;;;;14.37;3.40;;;5.60;99.90;;;;;;6129637;23;20149;-82
2021/03/16 09:05:00;;;;;;;11.37;2.83;;;5.50;99.90;;;;;;6131542;23;20161;-83
2021/03/16 09:07:30;;;;;;;14.83;3.30;;;5.60;99.90;;;;;;6157832;23;20303;-85
2021/03/16 09:10:06;;;;;;;13.20;3.43;;;5.50;99.90;;;;;;6133485;23;20187;-86
2021/03/16 09:12:34;;;;;;;9.87;2.87;;;5.70;99.90;;;;;;6134196;23;20161;-84
2021/03/16 09:15:09;;;;;;;10.53;2.80;;;6.00;99.90;;;;;;6136166;23;20151;-84
2021/03/16 09:17:36;;;;;;;10.33;2.47;;;6.00;99.90;;;;;;6134893;23;20199;-84
2021/03/16 09:20:19;;;;;;;11.53;2.83;;;5.90;99.90;;;;;;6133907;23;20699;-85
2021/03/16 09:22:51;;;;;;;8.87;2.43;;;5.80;99.90;;;;;;6133849;23;20149;-86
2021/03/16 09:25:17;;;;;;;6.57;2.07;;;5.80;99.90;;;;;;6135698;23;20160;-84
2021/03/16 09:27:43;;;;;;;9.37;2.30;;;6.00;99.90;;;;;;6159873;23;20198;-85
2021/03/16 09:30:13;;;;;;;14.33;2.87;;;6.20;99.90;;;;;;6134080;23;20212;-83
2021/03/16 09:32:44;;;;;;;12.87;2.40;;;6.40;99.90;;;;;;6134222;23;20157;-83
2021/03/16 09:35:13;;;;;;;12.70;3.27;;;6.60;99.90;;;;;;6133195;23;20573;-84
2021/03/16 09:37:44;;;;;;;9.00;1.83;;;6.40;99.90;;;;;;6133597;23;20153;-83
2021/03/16 09:40:10;;;;;;;12.30;2.50;;;6.50;99.90;;;;;;6160293;23;20576;-83
2021/03/16 09:42:48;;;;;;;7.67;2.10;;;6.60;99.90;;;;;;6132774;23;20172;-83
2021/03/16 09:45:27;;;;;;;12.33;2.03;;;6.60;99.90;;;;;;6132168;23;20160;-82
2021/03/16 09:47:53;;;;;;;6.50;1.63;;;6.50;99.90;;;;;;6155330;23;20165;-83
2021/03/16 09:50:29;;;;;;;9.00;2.57;;;6.30;99.90;;;;;;6130963;23;20183;-83
2021/03/16 09:53:02;;;;;;;8.93;2.00;;;6.30;99.90;;;;;;6158365;23;20163;-83
2021/03/16 09:55:28;;;;;;;11.50;1.97;;;6.40;99.90;;;;;;6158355;23;20148;-83
2021/03/16 09:57:54;;;;;;;18.43;2.53;;;6.70;99.90;;;;;;6129522;23;20661;-84
2021/03/16 10:00:22;;;;;;;5.00;1.60;;;6.90;99.90;;;;;;6129004;23;20178;-82
2021/03/16 10:02:48;;;;;;;11.10;2.00;;;6.80;99.90;;;;;;6128962;23;20161;-83
2021/03/16 10:05:17;;;;;;;9.90;1.73;;;6.80;99.90;;;;;;6127509;23;20203;-84
2021/03/16 10:07:50;;;;;;;10.53;1.90;;;7.10;99.90;;;;;;6128078;23;20169;-82
2021/03/16 10:10:24;;;;;;;12.27;2.23;;;6.90;99.90;;;;;;6150848;23;20177;-83
2021/03/16 10:13:04;;;;;;;11.70;1.80;;;6.90;99.90;;;;;;6126694;23;20203;-81
2021/03/16 10:15:35;;;;;;;16.83;2.10;;;7.00;99.90;;;;;;6122321;23;20148;-83
2021/03/16 10:18:08;;;;;;;10.40;1.97;;;7.10;99.90;;;;;;6153888;23;20156;-82
2021/03/16 10:20:39;;;;;;;14.20;1.77;;;7.20;99.90;;;;;;6127196;23;20181;-83
2021/03/16 10:23:12;;;;;;;12.73;1.87;;;7.40;99.90;;;;;;6127701;23;20242;-83
2021/03/16 10:25:38;;;;;;;9.13;1.90;;;7.50;99.90;;;;;;6154603;23;20573;-82
2021/03/16 10:28:06;;;;;;;11.37;1.80;;;7.60;99.90;;;;;;6124599;23;20208;-83
2021/03/16 10:30:39;;;;;;;11.40;2.10;;;7.60;99.90;;;;;;6120627;23;20185;-82
2021/03/16 10:33:06;;;;;;;10.20;2.03;;;7.60;99.90;;;;;;6120733;23;20572;-82
2021/03/16 10:35:34;;;;;;;9.97;1.47;;;7.50;99.90;;;;;;6126851;23;20656;-84
2021/03/16 10:37:59;;;;;;;11.53;1.83;;;7.60;99.90;;;;;;6155336;23;20604;-82
2021/03/16 10:40:25;;;;;;;12.10;2.10;;;7.70;99.90;;;;;;6128749;23;20250;-83
2021/03/16 10:42:51;;;;;;;16.10;2.00;;;7.80;99.90;;;;;;6124230;23;20617;-83
2021/03/16 10:45:17;;;;;;;9.70;2.30;;;7.70;99.90;;;;;;6146036;23;20157;-82
2021/03/16 10:47:43;;;;;;;11.40;1.97;;;7.90;99.90;;;;;;6121109;23;20517;-83
2021/03/16 10:50:09;;;;;;;10.17;2.00;;;7.90;99.90;;;;;;6127621;23;20177;-83
2021/03/16 10:52:35;;;;;;;10.47;1.87;;;7.90;99.90;;;;;;6127889;23;20161;-84
2021/03/16 10:55:01;;;;;;;11.63;2.13;;;7.90;99.90;;;;;;6129171;23;20587;-82
2021/03/16 10:57:26;;;;;;;10.67;2.57;;;7.90;99.90;;;;;;6127052;23;20161;-83
2021/03/16 10:59:52;;;;;;;11.90;2.10;;;7.90;99.90;;;;;;6128650;23;20629;-82
2021/03/16 11:02:17;;;;;;;9.93;2.27;;;7.60;99.90;;;;;;6128261;23;20157;-84
2021/03/16 11:04:43;;;;;;;8.07;1.80;;;8.00;99.90;;;;;;6154233;23;20167;-82
2021/03/16 11:07:09;;;;;;;9.30;1.57;;;8.30;99.90;;;;;;6127772;23;20181;-82
2021/03/16 11:09:34;;;;;;;9.17;1.73;;;8.20;99.90;;;;;;6153467;23;20169;-81
2021/03/16 11:12:00;;;;;;;11.80;1.97;;;8.40;99.90;;;;;;6126524;23;20157;-83
2021/03/16 11:14:25;;;;;;;10.67;1.97;;;8.90;99.90;;;;;;6128863;23;20158;-83
2021/03/16 11:16:51;;;;;;;11.43;2.43;;;9.20;99.90;;;;;;6128647;23;20498;-83
2021/03/16 11:19:17;;;;;;;10.50;1.70;;;9.20;99.90;;;;;;6129185;23;20728;-84
2021/03/16 11:21:45;;;;;;;13.30;1.70;;;9.00;99.90;;;;;;6155722;23;20149;-83
2021/03/16 11:24:11;;;;;;;7.43;1.37;;;9.00;99.90;;;;;;6129461;23;20241;-84
2021/03/16 11:26:36;;;;;;;9.43;1.60;;;8.80;99.90;;;;;;6129233;23;20500;-83
2021/03/16 11:29:02;;;;;;;9.93;1.37;;;8.80;99.90;;;;;;6129094;23;20180;-83
2021/03/16 11:31:28;;;;;;;7.80;1.60;;;8.70;99.90;;;;;;6155931;23;20461;-85
2021/03/16 11:33:53;;;;;;;7.97;1.40;;;9.00;99.90;;;;;;6129586;23;20160;-84
2021/03/16 11:36:20;;;;;;;8.67;1.77;;;9.20;99.90;;;;;;6129456;23;20656;-83
2021/03/16 11:38:45;;;;;;;6.87;1.33;;;9.30;99.90;;;;;;6128821;23;20601;-82
2021/03/16 11:41:11;;;;;;;10.03;1.50;;;9.50;99.90;;;;;;6129942;23;20161;-83
2021/03/16 11:43:38;;;;;;;8.73;1.53;;;9.60;99.90;;;;;;6129560;23;20184;-83
2021/03/16 11:46:03;;;;;;;7.53;1.20;;;9.30;99.90;;;;;;6129351;23;20153;-84
2021/03/16 11:48:29;;;;;;;7.00;1.47;;;9.20;99.90;;;;;;6129305;23;20153;-85
2021/03/16 11:50:54;;;;;;;10.43;1.50;;;9.10;99.90;;;;;;6129180;23;20208;-83
2021/03/16 11:53:20;;;;;;;4.20;1.20;;;8.60;99.90;;;;;;6155549;23;20149;-83
2021/03/16 11:55:46;;;;;;;7.97;1.43;;;8.50;99.90;;;;;;6129248;23;20262;-83
2021/03/16 11:58:11;;;;;;;8.70;1.33;;;8.90;99.90;;;;;;6129167;23;20243;-84
2021/03/16 12:00:37;;;;;;;5.60;1.13;;;9.00;99.90;;;;;;6155147;23;20247;-83
2021/03/16 12:03:04;;;;;;;6.93;1.47;;;9.30;99.90;;;;;;6129222;23;20161;-83
2021/03/16 12:05:29;;;;;;;5.90;1.40;;;9.40;99.90;;;;;;6129577;23;20161;-82
2021/03/16 12:07:55;;;;;;;7.27;1.30;;;8.90;99.90;;;;;;6129157;23;20299;-83
2021/03/16 12:10:21;;;;;;;7.33;1.13;;;8.90;99.90;;;;;;6128972;23;20172;-84
2021/03/16 12:12:46;;;;;;;8.00;1.40;;;8.70;99.90;;;;;;6129410;23;20153;-82
2021/03/16 12:15:18;;;;;;;8.83;1.27;;;8.50;99.90;;;;;;6129289;23;20157;-83
2021/03/16 12:17:45;;;;;;;4.67;1.43;;;8.60;99.90;;;;;;6155367;23;20160;-82
2021/03/16 12:20:11;;;;;;;6.13;1.17;;;8.50;99.90;;;;;;6128965;23;20180;-83
2021/03/16 12:22:37;;;;;;;7.90;1.40;;;8.40;99.90;;;;;;6155150;23;20156;-83
2021/03/16 12:25:07;;;;;;;4.37;0.80;;;8.30;99.90;;;;;;6129151;23;20161;-83
2021/03/16 12:27:32;;;;;;;3.50;0.80;;;8.40;99.90;;;;;;6128816;23;20207;-83
2021/03/16 12:29:58;;;;;;;10.43;1.80;;;8.70;99.90;;;;;;6128925;23;20636;-83
2021/03/16 12:32:24;;;;;;;6.10;1.23;;;8.80;99.90;;;;;;6129246;23;20160;-83
2021/03/16 12:34:51;;;;;;;6.67;1.20;;;8.90;99.90;;;;;;6129118;23;20149;-83
2021/03/16 12:37:17;;;;;;;6.73;1.17;;;8.90;99.90;;;;;;6128812;23;20542;-83
2021/03/16 12:39:43;;;;;;;7.27;1.17;;;9.00;99.90;;;;;;6128612;23;20644;-84
2021/03/16 12:42:09;;;;;;;9.97;1.17;;;9.10;99.90;;;;;;6129026;23;20164;-82
2021/03/16 12:44:34;;;;;;;6.30;1.00;;;9.10;99.90;;;;;;6128261;23;20157;-83
2021/03/16 12:47:03;;;;;;;6.03;1.10;;;9.00;99.90;;;;;;6128658;23;20264;-83
2021/03/16 12:49:29;;;;;;;5.33;1.10;;;9.10;99.90;;;;;;6154078;23;20249;-84
2021/03/16 12:51:55;;;;;;;5.97;1.00;;;8.80;99.90;;;;;;6154973;23;20169;-82
2021/03/16 12:54:22;;;;;;;9.40;1.37;;;8.80;99.90;;;;;;6128415;23;20156;-82
2021/03/16 12:56:51;;;;;;;4.80;1.07;;;9.00;99.90;;;;;;6154922;23;20593;-84
2021/03/16 12:59:19;;;;;;;6.90;1.60;;;9.10;99.90;;;;;;6153823;23;20181;-82
2021/03/16 13:01:46;;;;;;;6.80;1.40;;;8.90;99.90;;;;;;6128956;23;20464;-82
2021/03/16 13:04:12;;;;;;;8.33;1.20;;;8.90;99.90;;;;;;6128669;23;20161;-82
2021/03/16 13:06:38;;;;;;;5.13;0.80;;;8.90;99.90;;;;;;6128704;23;20525;-82
2021/03/16 13:09:05;;;;;;;5.60;1.20;;;8.90;99.90;;;;;;6153203;23;20687;-84
2021/03/16 13:11:31;;;;;;;7.20;0.97;;;9.10;99.90;;;;;;6128546;23;20159;-82
2021/03/16 13:13:57;;;;;;;7.53;1.40;;;9.00;99.90;;;;;;6129225;23;20154;-83
2021/03/16 13:16:23;;;;;;;7.73;1.83;;;8.90;99.90;;;;;;6128800;23;20245;-82
2021/03/16 13:18:48;;;;;;;10.47;1.30;;;9.10;99.90;;;;;;6128468;23;20157;-82
2021/03/16 13:21:14;;;;;;;11.07;2.03;;;9.10;99.90;;;;;;6128392;23;20169;-82
2021/03/16 13:23:47;;;;;;;10.03;1.83;;;9.10;99.90;;;;;;6128588;23;20167;-81
2021/03/16 13:26:12;;;;;;;14.13;2.27;;;9.20;99.90;;;;;;6128692;23;20644;-82
2021/03/16 13:28:38;;;;;;;14.20;3.53;;;9.30;99.90;;;;;;6128524;23;20149;-82
2021/03/16 13:31:03;;;;;;;10.60;1.10;;;9.10;99.90;;;;;;6128579;23;20202;-84
2021/03/16 13:33:29;;;;;;;11.77;1.70;;;9.10;99.90;;;;;;6154743;23;20145;-82
2021/03/16 13:35:55;;;;;;;7.73;1.57;;;9.10;99.90;;;;;;6128189;23;20620;-81
2021/03/16 13:38:24;;;;;;;6.57;1.17;;;8.90;99.90;;;;;;6128321;23;20164;-82
2021/03/16 13:40:49;;;;;;;12.30;2.90;;;8.90;99.90;;;;;;6128681;23;20196;-81
2021/03/16 21:22:40;;;;;;;17.20;4.73;;;3.40;99.90;;;;;;6158107;23;20236;-84
2021/03/16 21:25:08;;;;;;;16.90;4.60;;;3.40;99.90;;;;;;6155766;23;20163;-84
2021/03/16 21:27:33;;;;;;;27.40;7.93;;;3.40;99.90;;;;;;6154149;23;20185;-83
2021/03/16 21:30:00;;;;;;;25.87;8.30;;;3.40;99.90;;;;;;6159125;23;20199;-84
2021/03/16 21:32:26;;;;;;;14.67;4.20;;;3.30;99.90;;;;;;6156835;23;20153;-81
2021/03/16 21:34:52;;;;;;;16.00;2.70;;;3.30;99.90;;;;;;6157205;23;20521;-83
2021/03/16 21:37:17;;;;;;;10.37;2.03;;;3.30;99.90;;;;;;6159384;23;20161;-82
2021/03/16 21:39:43;;;;;;;7.73;1.90;;;3.30;99.90;;;;;;6159847;23;20173;-83
2021/03/16 21:42:09;;;;;;;6.70;2.03;;;3.30;99.90;;;;;;6156557;23;20184;-82
2021/03/16 21:44:36;;;;;;;13.63;2.37;;;3.30;99.90;;;;;;6158894;23;20160;-82
2021/03/16 21:47:01;;;;;;;9.70;1.90;;;3.40;99.90;;;;;;6157685;23;20185;-82
2021/03/16 21:49:27;;;;;;;12.33;2.80;;;3.40;99.90;;;;;;6157673;23;20183;-81
2021/03/16 21:51:52;;;;;;;10.93;2.80;;;3.30;99.90;;;;;;6156951;23;20205;-81
2021/03/16 21:54:21;;;;;;;7.93;2.53;;;3.30;99.90;;;;;;6158114;23;20216;-81
2021/03/16 21:56:46;;;;;;;12.27;2.10;;;3.30;99.90;;;;;;6158486;23;20220;-81
2021/03/16 21:59:12;;;;;;;9.53;2.23;;;3.30;99.90;;;;;;6157420;23;20214;-80
2021/03/16 22:01:37;;;;;;;8.13;2.13;;;3.30;99.90;;;;;;6157660;23;20153;-82
2021/03/16 22:04:03;;;;;;;9.60;2.30;;;3.30;99.90;;;;;;6157773;23;20215;-80
2021/03/16 22:06:29;;;;;;;9.57;2.30;;;3.30;99.90;;;;;;6158562;23;20176;-80
2021/03/16 22:08:55;;;;;;;17.87;3.43;;;3.30;99.90;;;;;;6159260;23;20157;-84
2021/03/16 22:11:20;;;;;;;15.50;2.87;;;3.30;99.90;;;;;;6157737;23;20153;-81
2021/03/16 22:13:47;;;;;;;11.27;2.30;;;3.30;99.90;;;;;;6161494;23;20154;-82
2021/03/16 22:16:12;;;;;;;11.63;2.37;;;3.30;99.90;;;;;;6160224;23;20164;-82
2021/03/16 22:18:38;;;;;;;12.77;2.23;;;3.20;99.90;;;;;;6161757;23;20153;-82
2021/03/16 22:21:03;;;;;;;13.23;3.23;;;3.10;99.90;;;;;;6160216;23;20193;-83
2021/03/16 22:23:29;;;;;;;11.73;2.10;;;3.10;99.90;;;;;;6163871;23;20207;-84
2021/03/16 22:25:56;;;;;;;12.33;2.40;;;3.10;99.90;;;;;;6165195;23;20161;-83
2021/03/16 22:28:21;;;;;;;11.87;2.43;;;3.10;99.90;;;;;;6170143;23;20177;-83
2021/03/16 22:30:47;;;;;;;8.67;1.70;;;3.00;99.90;;;;;;6166409;23;20169;-82
2021/03/16 22:33:12;;;;;;;7.70;1.47;;;3.00;99.90;;;;;;6165609;23;20184;-83
2021/03/16 22:35:38;;;;;;;8.07;1.57;;;3.00;99.90;;;;;;6166730;23;20153;-83
2021/03/16 22:38:25;;;;;;;7.37;2.00;;;3.00;99.90;;;;;;6170145;23;20157;-81
2021/03/16 22:40:54;;;;;;;12.03;2.30;;;3.00;99.90;;;;;;6173486;23;20204;-82
2021/03/16 22:43:20;;;;;;;8.40;1.83;;;3.00;99.90;;;;;;6163974;23;20476;-83
2021/03/16 22:45:46;;;;;;;12.63;2.57;;;3.00;99.90;;;;;;6165467;23;20624;-82
2021/03/16 22:51:14;;;;;;;13.63;1.87;;;2.90;99.90;;;;;;6173960;23;20201;-81
2021/03/16 22:56:58;;;;;;;7.70;1.87;;;2.90;99.90;;;;;;6170331;23;20179;-81
2021/03/16 22:59:23;;;;;;;9.63;2.10;;;2.90;99.90;;;;;;6156351;23;20183;-80
2021/03/16 23:01:49;;;;;;;9.83;1.77;;;2.90;99.90;;;;;;6155635;23;20196;-81
2021/03/16 23:04:15;;;;;;;10.67;2.27;;;2.80;99.90;;;;;;6155769;23;20159;-81
2021/03/16 23:06:40;;;;;;;11.50;2.10;;;2.80;99.90;;;;;;6157285;23;20236;-81
2021/03/16 23:09:08;;;;;;;6.70;1.20;;;2.70;99.90;;;;;;6159886;23;20165;-81
2021/03/16 23:11:35;;;;;;;11.00;2.70;;;2.70;99.90;;;;;;6154623;23;20149;-81
2021/03/16 23:14:01;;;;;;;17.10;4.17;;;2.70;99.90;;;;;;6154903;23;20157;-81
2021/03/16 23:16:26;;;;;;;22.00;4.70;;;2.80;99.90;;;;;;6155589;23;20154;-81
2021/03/16 23:18:52;;;;;;;14.27;3.80;;;2.80;99.90;;;;;;6156067;23;20153;-81
2021/03/16 23:21:18;;;;;;;8.33;2.60;;;2.70;99.90;;;;;;6155727;23;20169;-81
2021/03/16 23:23:43;;;;;;;9.17;1.83;;;2.70;99.90;;;;;;6156485;23;20160;-81
2021/03/16 23:26:09;;;;;;;16.07;3.50;;;2.70;99.90;;;;;;6160172;23;20192;-81
2021/03/16 23:28:36;;;;;;;14.17;3.93;;;2.60;99.90;;;;;;6163519;23;20184;-81
2021/03/16 23:31:04;;;;;;;15.47;4.60;;;2.70;99.90;;;;;;6162392;23;20181;-81
2021/03/16 23:33:33;;;;;;;14.77;5.33;;;2.70;99.90;;;;;;6162525;23;20243;-81
2021/03/16 23:35:59;;;;;;;12.10;3.40;;;2.70;99.90;;;;;;6165147;23;20180;-81
2021/03/16 23:38:25;;;;;;;8.50;2.27;;;2.70;99.90;;;;;;6165184;23;20597;-81
2021/03/16 23:40:52;;;;;;;8.30;2.70;;;2.70;99.90;;;;;;6162161;23;20173;-81
2021/03/16 23:43:24;;;;;;;13.67;4.40;;;2.70;99.90;;;;;;6165540;23;20157;-81
2021/03/16 23:45:49;;;;;;;16.07;4.73;;;2.70;99.90;;;;;;6169189;23;20149;-81
2021/03/16 23:48:18;;;;;;;9.47;3.03;;;2.70;99.90;;;;;;6164989;23;20189;-81
2021/03/16 23:50:50;;;;;;;15.87;3.20;;;2.70;99.90;;;;;;6169012;23;20220;-81
2021/03/16 23:53:18;;;;;;;18.63;3.90;;;2.50;99.90;;;;;;6162428;23;20153;-81
2021/03/16 23:55:45;;;;;;;10.47;3.00;;;2.60;99.90;;;;;;6159994;23;20157;-81
2021/03/16 23:58:12;;;;;;;16.97;4.40;;;2.60;99.90;;;;;;6160199;23;20173;-81
